sensor_id;sensor_type;location;lat;lon;timestamp;temperature;humidity
11454;DHT22;5783;55.174;61.310;2022-11-20T00:01:59;14.00;34.40
11454;DHT22;5783;55.174;61.310;2022-11-20T00:04:28;14.10;34.60
11454;DHT22;5783;55.174;61.310;2022-11-20T00:06:57;14.00;34.60
11454;DHT22;5783;55.174;61.310;2022-11-20T00:09:27;14.00;34.80
11454;DHT22;5783;55.174;61.310;2022-11-20T00:11:56;13.90;34.80
11454;DHT22;5783;55.174;61.310;2022-11-20T00:14:25;14.00;34.90
11454;DHT22;5783;55.174;61.310;2022-11-20T00:16:54;14.00;34.60
11454;DHT22;5783;55.174;61.310;2022-11-20T00:19:23;14.00;34.50
11454;DHT22;5783;55.174;61.310;2022-11-20T00:21:52;14.00;34.40
11454;DHT22;5783;55.174;61.310;2022-11-20T00:24:21;13.90;34.50
11454;DHT22;5783;55.174;61.310;2022-11-20T00:26:51;13.90;33.90
11454;DHT22;5783;55.174;61.310;2022-11-20T00:29:20;13.90;34.40
11454;DHT22;5783;55.174;61.310;2022-11-20T00:31:49;13.90;34.50
11454;DHT22;5783;55.174;61.310;2022-11-20T00:34:18;13.90;34.40
11454;DHT22;5783;55.174;61.310;2022-11-20T00:36:47;13.90;33.80
11454;DHT22;5783;55.174;61.310;2022-11-20T00:39:16;13.80;33.70
11454;DHT22;5783;55.174;61.310;2022-11-20T00:41:45;13.90;34.20
11454;DHT22;5783;55.174;61.310;2022-11-20T00:44:14;13.90;34.20
11454;DHT22;5783;55.174;61.310;2022-11-20T00:46:43;13.90;34.30
11454;DHT22;5783;55.174;61.310;2022-11-20T00:49:13;14.00;34.30
11454;DHT22;5783;55.174;61.310;2022-11-20T00:51:42;14.00;34.30
11454;DHT22;5783;55.174;61.310;2022-11-20T00:54:11;14.00;34.20
11454;DHT22;5783;55.174;61.310;2022-11-20T00:56:40;14.00;34.20
11454;DHT22;5783;55.174;61.310;2022-11-20T00:59:09;14.00;34.20
11454;DHT22;5783;55.174;61.310;2022-11-20T01:01:39;14.00;34.10
11454;DHT22;5783;55.174;61.310;2022-11-20T01:04:08;14.10;34.00
11454;DHT22;5783;55.174;61.310;2022-11-20T01:06:38;14.00;33.90
11454;DHT22;5783;55.174;61.310;2022-11-20T01:09:27;14.10;34.10
11454;DHT22;5783;55.174;61.310;2022-11-20T01:11:56;14.10;33.90
11454;DHT22;5783;55.174;61.310;2022-11-20T01:14:25;14.10;33.90
11454;DHT22;5783;55.174;61.310;2022-11-20T01:16:54;14.00;33.80
11454;DHT22;5783;55.174;61.310;2022-11-20T01:19:24;14.10;33.90
11454;DHT22;5783;55.174;61.310;2022-11-20T01:21:54;14.00;33.90
11454;DHT22;5783;55.174;61.310;2022-11-20T01:24:23;14.00;33.80
11454;DHT22;5783;55.174;61.310;2022-11-20T01:26:52;14.00;34.10
11454;DHT22;5783;55.174;61.310;2022-11-20T01:29:41;14.00;33.70
11454;DHT22;5783;55.174;61.310;2022-11-20T01:32:10;14.00;33.90
11454;DHT22;5783;55.174;61.310;2022-11-20T01:34:39;14.00;33.80
11454;DHT22;5783;55.174;61.310;2022-11-20T01:37:08;14.00;33.60
11454;DHT22;5783;55.174;61.310;2022-11-20T01:39:37;14.00;33.60
11454;DHT22;5783;55.174;61.310;2022-11-20T01:42:08;14.00;33.60
11454;DHT22;5783;55.174;61.310;2022-11-20T01:44:58;13.90;33.20
11454;DHT22;5783;55.174;61.310;2022-11-20T01:50:24;13.90;33.80
11454;DHT22;5783;55.174;61.310;2022-11-20T01:55:48;13.80;33.90
11454;DHT22;5783;55.174;61.310;2022-11-20T01:58:20;13.90;33.90
11454;DHT22;5783;55.174;61.310;2022-11-20T02:00:50;13.90;33.80
11454;DHT22;5783;55.174;61.310;2022-11-20T02:03:21;13.90;33.80
11454;DHT22;5783;55.174;61.310;2022-11-20T02:08:59;13.90;34.00
11454;DHT22;5783;55.174;61.310;2022-11-20T02:11:30;13.80;34.50
11454;DHT22;5783;55.174;61.310;2022-11-20T02:13:59;13.80;34.30
11454;DHT22;5783;55.174;61.310;2022-11-20T02:16:48;13.80;34.40
11454;DHT22;5783;55.174;61.310;2022-11-20T02:19:37;13.80;34.10
11454;DHT22;5783;55.174;61.310;2022-11-20T02:22:29;13.80;34.10
11454;DHT22;5783;55.174;61.310;2022-11-20T02:24:59;13.80;34.00
11454;DHT22;5783;55.174;61.310;2022-11-20T02:27:31;13.90;34.00
11454;DHT22;5783;55.174;61.310;2022-11-20T02:30:20;13.80;33.90
11454;DHT22;5783;55.174;61.310;2022-11-20T02:32:49;13.80;33.70
11454;DHT22;5783;55.174;61.310;2022-11-20T02:35:39;13.80;33.90
11454;DHT22;5783;55.174;61.310;2022-11-20T02:38:08;13.80;33.90
11454;DHT22;5783;55.174;61.310;2022-11-20T02:40:38;13.80;33.60
11454;DHT22;5783;55.174;61.310;2022-11-20T02:43:07;13.80;33.70
11454;DHT22;5783;55.174;61.310;2022-11-20T02:45:37;13.90;33.50
11454;DHT22;5783;55.174;61.310;2022-11-20T02:48:07;13.90;33.90
11454;DHT22;5783;55.174;61.310;2022-11-20T02:50:56;13.90;33.50
11454;DHT22;5783;55.174;61.310;2022-11-20T02:53:25;13.90;33.80
11454;DHT22;5783;55.174;61.310;2022-11-20T02:55:54;13.80;33.80
11454;DHT22;5783;55.174;61.310;2022-11-20T02:58:24;13.80;33.90
11454;DHT22;5783;55.174;61.310;2022-11-20T03:00:53;13.90;34.00
11454;DHT22;5783;55.174;61.310;2022-11-20T03:03:22;13.90;33.80
11454;DHT22;5783;55.174;61.310;2022-11-20T03:05:51;14.00;33.70
11454;DHT22;5783;55.174;61.310;2022-11-20T03:08:20;13.90;33.20
11454;DHT22;5783;55.174;61.310;2022-11-20T03:10:49;13.80;33.50
11454;DHT22;5783;55.174;61.310;2022-11-20T03:13:18;13.70;33.70
11454;DHT22;5783;55.174;61.310;2022-11-20T03:15:48;13.70;33.50
11454;DHT22;5783;55.174;61.310;2022-11-20T03:18:17;13.70;33.60
11454;DHT22;5783;55.174;61.310;2022-11-20T03:20:46;13.70;33.90
11454;DHT22;5783;55.174;61.310;2022-11-20T03:23:16;13.60;33.80
11454;DHT22;5783;55.174;61.310;2022-11-20T03:25:45;13.70;34.00
11454;DHT22;5783;55.174;61.310;2022-11-20T03:28:14;13.80;33.60
11454;DHT22;5783;55.174;61.310;2022-11-20T03:30:43;13.80;33.30
11454;DHT22;5783;55.174;61.310;2022-11-20T03:33:12;13.80;33.50
11454;DHT22;5783;55.174;61.310;2022-11-20T03:35:42;13.80;33.70
11454;DHT22;5783;55.174;61.310;2022-11-20T03:38:11;13.70;33.50
11454;DHT22;5783;55.174;61.310;2022-11-20T03:40:40;13.70;34.10
11454;DHT22;5783;55.174;61.310;2022-11-20T03:43:10;13.80;33.90
11454;DHT22;5783;55.174;61.310;2022-11-20T03:45:39;13.80;33.60
11454;DHT22;5783;55.174;61.310;2022-11-20T03:48:08;13.80;33.50
11454;DHT22;5783;55.174;61.310;2022-11-20T03:50:37;13.80;33.60
11454;DHT22;5783;55.174;61.310;2022-11-20T03:53:06;13.80;33.70
11454;DHT22;5783;55.174;61.310;2022-11-20T03:55:35;13.90;33.70
11454;DHT22;5783;55.174;61.310;2022-11-20T03:58:04;14.00;33.30
11454;DHT22;5783;55.174;61.310;2022-11-20T04:00:33;14.00;33.10
11454;DHT22;5783;55.174;61.310;2022-11-20T04:03:03;14.00;33.30
11454;DHT22;5783;55.174;61.310;2022-11-20T04:05:33;13.80;32.90
11454;DHT22;5783;55.174;61.310;2022-11-20T04:08:02;13.70;33.30
11454;DHT22;5783;55.174;61.310;2022-11-20T04:10:32;13.50;32.90
11454;DHT22;5783;55.174;61.310;2022-11-20T04:13:01;13.40;33.30
11454;DHT22;5783;55.174;61.310;2022-11-20T04:15:30;13.40;33.60
11454;DHT22;5783;55.174;61.310;2022-11-20T04:17:59;13.80;32.90
11454;DHT22;5783;55.174;61.310;2022-11-20T04:20:28;14.20;32.10
11454;DHT22;5783;55.174;61.310;2022-11-20T04:22:57;14.60;29.50
11454;DHT22;5783;55.174;61.310;2022-11-20T04:25:26;14.90;28.70
11454;DHT22;5783;55.174;61.310;2022-11-20T04:27:55;15.20;28.10
11454;DHT22;5783;55.174;61.310;2022-11-20T04:30:24;15.50;27.50
11454;DHT22;5783;55.174;61.310;2022-11-20T04:32:53;15.70;26.80
11454;DHT22;5783;55.174;61.310;2022-11-20T04:35:23;15.90;26.80
11454;DHT22;5783;55.174;61.310;2022-11-20T04:37:52;16.10;26.50
11454;DHT22;5783;55.174;61.310;2022-11-20T04:42:50;16.30;25.90
11454;DHT22;5783;55.174;61.310;2022-11-20T04:45:19;16.30;26.20
11454;DHT22;5783;55.174;61.310;2022-11-20T04:47:48;16.30;26.20
11454;DHT22;5783;55.174;61.310;2022-11-20T04:50:17;16.30;26.30
11454;DHT22;5783;55.174;61.310;2022-11-20T04:52:46;16.30;26.00
11454;DHT22;5783;55.174;61.310;2022-11-20T04:55:15;16.40;26.10
11454;DHT22;5783;55.174;61.310;2022-11-20T04:57:44;16.50;26.10
11454;DHT22;5783;55.174;61.310;2022-11-20T05:00:15;16.30;25.60
11454;DHT22;5783;55.174;61.310;2022-11-20T05:02:44;16.20;26.40
11454;DHT22;5783;55.174;61.310;2022-11-20T05:05:13;16.30;26.20
11454;DHT22;5783;55.174;61.310;2022-11-20T05:07:42;16.50;24.20
11454;DHT22;5783;55.174;61.310;2022-11-20T05:10:11;16.60;21.00
11454;DHT22;5783;55.174;61.310;2022-11-20T05:12:41;16.60;20.40
11454;DHT22;5783;55.174;61.310;2022-11-20T05:15:10;16.40;20.20
11454;DHT22;5783;55.174;61.310;2022-11-20T05:17:39;16.10;21.00
11454;DHT22;5783;55.174;61.310;2022-11-20T05:20:09;15.80;21.70
11454;DHT22;5783;55.174;61.310;2022-11-20T05:22:38;15.40;22.40
11454;DHT22;5783;55.174;61.310;2022-11-20T05:25:08;14.90;22.90
11454;DHT22;5783;55.174;61.310;2022-11-20T05:27:37;14.80;23.80
11454;DHT22;5783;55.174;61.310;2022-11-20T05:30:07;14.70;23.70
11454;DHT22;5783;55.174;61.310;2022-11-20T05:32:37;14.70;24.10
11454;DHT22;5783;55.174;61.310;2022-11-20T05:35:06;14.70;24.50
11454;DHT22;5783;55.174;61.310;2022-11-20T05:37:35;14.80;24.70
11454;DHT22;5783;55.174;61.310;2022-11-20T05:40:05;14.90;25.20
11454;DHT22;5783;55.174;61.310;2022-11-20T05:42:35;15.10;24.80
11454;DHT22;5783;55.174;61.310;2022-11-20T05:45:05;15.20;24.90
11454;DHT22;5783;55.174;61.310;2022-11-20T05:47:34;15.20;24.70
11454;DHT22;5783;55.174;61.310;2022-11-20T05:50:03;15.20;24.80
11454;DHT22;5783;55.174;61.310;2022-11-20T05:52:33;15.10;24.80
11454;DHT22;5783;55.174;61.310;2022-11-20T05:55:02;15.00;24.60
11454;DHT22;5783;55.174;61.310;2022-11-20T05:57:31;14.80;24.90
11454;DHT22;5783;55.174;61.310;2022-11-20T06:00:00;14.80;25.10
11454;DHT22;5783;55.174;61.310;2022-11-20T06:02:34;14.90;25.20
11454;DHT22;5783;55.174;61.310;2022-11-20T06:05:04;15.00;25.20
11454;DHT22;5783;55.174;61.310;2022-11-20T06:07:34;14.80;24.90
11454;DHT22;5783;55.174;61.310;2022-11-20T06:10:03;14.70;25.00
11454;DHT22;5783;55.174;61.310;2022-11-20T06:12:32;14.70;26.80
11454;DHT22;5783;55.174;61.310;2022-11-20T06:15:01;14.70;26.20
11454;DHT22;5783;55.174;61.310;2022-11-20T06:17:31;14.70;25.60
11454;DHT22;5783;55.174;61.310;2022-11-20T06:20:00;14.60;25.20
11454;DHT22;5783;55.174;61.310;2022-11-20T06:22:31;14.40;24.70
11454;DHT22;5783;55.174;61.310;2022-11-20T06:25:01;14.40;25.60
11454;DHT22;5783;55.174;61.310;2022-11-20T06:27:31;14.30;25.70
11454;DHT22;5783;55.174;61.310;2022-11-20T06:30:00;14.40;26.30
11454;DHT22;5783;55.174;61.310;2022-11-20T06:32:30;14.50;26.20
11454;DHT22;5783;55.174;61.310;2022-11-20T06:34:59;14.50;26.60
11454;DHT22;5783;55.174;61.310;2022-11-20T06:37:28;14.60;26.30
11454;DHT22;5783;55.174;61.310;2022-11-20T06:39:57;14.60;26.00
11454;DHT22;5783;55.174;61.310;2022-11-20T06:42:27;14.70;25.70
11454;DHT22;5783;55.174;61.310;2022-11-20T06:44:56;14.70;25.50
11454;DHT22;5783;55.174;61.310;2022-11-20T06:47:25;14.70;25.50
11454;DHT22;5783;55.174;61.310;2022-11-20T06:49:54;14.70;25.80
11454;DHT22;5783;55.174;61.310;2022-11-20T06:52:23;14.70;25.90
11454;DHT22;5783;55.174;61.310;2022-11-20T06:54:52;14.80;25.50
11454;DHT22;5783;55.174;61.310;2022-11-20T06:57:21;14.80;25.80
11454;DHT22;5783;55.174;61.310;2022-11-20T06:59:50;15.00;25.50
11454;DHT22;5783;55.174;61.310;2022-11-20T07:02:20;15.10;25.40
11454;DHT22;5783;55.174;61.310;2022-11-20T07:04:50;15.20;25.40
11454;DHT22;5783;55.174;61.310;2022-11-20T07:07:19;15.30;25.90
11454;DHT22;5783;55.174;61.310;2022-11-20T07:09:48;15.40;25.70
11454;DHT22;5783;55.174;61.310;2022-11-20T07:12:18;15.30;25.30
11454;DHT22;5783;55.174;61.310;2022-11-20T07:14:49;15.20;25.20
11454;DHT22;5783;55.174;61.310;2022-11-20T07:17:18;15.20;25.70
11454;DHT22;5783;55.174;61.310;2022-11-20T07:19:47;15.30;25.90
11454;DHT22;5783;55.174;61.310;2022-11-20T07:22:16;15.30;25.40
11454;DHT22;5783;55.174;61.310;2022-11-20T07:24:48;15.30;27.90
11454;DHT22;5783;55.174;61.310;2022-11-20T07:27:17;15.30;26.50
11454;DHT22;5783;55.174;61.310;2022-11-20T07:29:46;15.50;26.30
11454;DHT22;5783;55.174;61.310;2022-11-20T07:32:15;15.50;26.10
11454;DHT22;5783;55.174;61.310;2022-11-20T07:34:44;15.40;26.30
11454;DHT22;5783;55.174;61.310;2022-11-20T07:37:14;15.40;26.90
11454;DHT22;5783;55.174;61.310;2022-11-20T07:39:44;15.40;26.10
11454;DHT22;5783;55.174;61.310;2022-11-20T07:42:13;15.50;25.90
11454;DHT22;5783;55.174;61.310;2022-11-20T07:44:42;15.40;25.60
11454;DHT22;5783;55.174;61.310;2022-11-20T07:47:11;15.40;25.80
11454;DHT22;5783;55.174;61.310;2022-11-20T07:49:40;15.50;26.20
11454;DHT22;5783;55.174;61.310;2022-11-20T07:52:09;15.50;26.10
11454;DHT22;5783;55.174;61.310;2022-11-20T07:54:38;15.50;25.90
11454;DHT22;5783;55.174;61.310;2022-11-20T07:57:07;15.60;26.20
11454;DHT22;5783;55.174;61.310;2022-11-20T07:59:37;15.60;25.50
11454;DHT22;5783;55.174;61.310;2022-11-20T08:02:09;15.50;25.90
11454;DHT22;5783;55.174;61.310;2022-11-20T08:04:36;15.50;25.80
11454;DHT22;5783;55.174;61.310;2022-11-20T08:07:06;15.60;26.80
11454;DHT22;5783;55.174;61.310;2022-11-20T08:09:35;15.70;26.40
11454;DHT22;5783;55.174;61.310;2022-11-20T08:12:04;15.80;26.60
11454;DHT22;5783;55.174;61.310;2022-11-20T08:14:53;15.90;27.00
11454;DHT22;5783;55.174;61.310;2022-11-20T08:17:23;16.00;26.20
11454;DHT22;5783;55.174;61.310;2022-11-20T08:19:53;15.90;26.70
11454;DHT22;5783;55.174;61.310;2022-11-20T08:22:22;15.90;26.00
11454;DHT22;5783;55.174;61.310;2022-11-20T08:24:51;16.00;25.80
11454;DHT22;5783;55.174;61.310;2022-11-20T08:27:21;16.00;25.80
11454;DHT22;5783;55.174;61.310;2022-11-20T08:29:50;16.00;25.50
11454;DHT22;5783;55.174;61.310;2022-11-20T08:32:19;16.00;25.90
11454;DHT22;5783;55.174;61.310;2022-11-20T08:34:48;16.00;26.00
11454;DHT22;5783;55.174;61.310;2022-11-20T08:37:17;16.00;25.90
11454;DHT22;5783;55.174;61.310;2022-11-20T08:39:46;16.00;25.60
11454;DHT22;5783;55.174;61.310;2022-11-20T08:42:15;16.10;25.60
11454;DHT22;5783;55.174;61.310;2022-11-20T08:44:44;16.00;25.50
11454;DHT22;5783;55.174;61.310;2022-11-20T08:47:14;16.10;25.60
11454;DHT22;5783;55.174;61.310;2022-11-20T08:49:43;16.20;25.70
11454;DHT22;5783;55.174;61.310;2022-11-20T08:52:12;16.20;25.60
11454;DHT22;5783;55.174;61.310;2022-11-20T08:54:41;16.30;25.50
11454;DHT22;5783;55.174;61.310;2022-11-20T08:57:10;16.20;25.40
11454;DHT22;5783;55.174;61.310;2022-11-20T08:59:39;16.20;25.50
11454;DHT22;5783;55.174;61.310;2022-11-20T09:02:08;16.20;25.70
11454;DHT22;5783;55.174;61.310;2022-11-20T09:04:38;16.20;25.90
11454;DHT22;5783;55.174;61.310;2022-11-20T09:07:07;16.30;25.90
11454;DHT22;5783;55.174;61.310;2022-11-20T09:09:37;16.40;25.90
11454;DHT22;5783;55.174;61.310;2022-11-20T09:12:06;16.40;26.10
11454;DHT22;5783;55.174;61.310;2022-11-20T09:14:35;16.50;25.90
11454;DHT22;5783;55.174;61.310;2022-11-20T09:17:04;16.50;25.90
11454;DHT22;5783;55.174;61.310;2022-11-20T09:19:34;16.50;25.60
11454;DHT22;5783;55.174;61.310;2022-11-20T09:22:03;16.40;25.60
11454;DHT22;5783;55.174;61.310;2022-11-20T09:24:32;16.40;25.60
11454;DHT22;5783;55.174;61.310;2022-11-20T09:29:51;16.40;25.90
11454;DHT22;5783;55.174;61.310;2022-11-20T09:32:20;16.40;26.10
11454;DHT22;5783;55.174;61.310;2022-11-20T09:34:49;16.40;25.90
11454;DHT22;5783;55.174;61.310;2022-11-20T09:37:18;16.20;25.70
11454;DHT22;5783;55.174;61.310;2022-11-20T09:39:47;16.30;25.60
11454;DHT22;5783;55.174;61.310;2022-11-20T09:46:21;16.30;25.70
11454;DHT22;5783;55.174;61.310;2022-11-20T09:57:58;16.30;26.10
11454;DHT22;5783;55.174;61.310;2022-11-20T10:00:15;16.30;26.10
11454;DHT22;5783;55.174;61.310;2022-11-20T10:03:13;16.30;26.30
11454;DHT22;5783;55.174;61.310;2022-11-20T10:42:08;16.50;25.90
11454;DHT22;5783;55.174;61.310;2022-11-20T10:44:37;16.50;25.90
11454;DHT22;5783;55.174;61.310;2022-11-20T10:47:30;16.50;25.70
11454;DHT22;5783;55.174;61.310;2022-11-20T10:52:54;16.40;25.70
11454;DHT22;5783;55.174;61.310;2022-11-20T10:58:36;16.20;25.80
11454;DHT22;5783;55.174;61.310;2022-11-20T11:01:21;16.20;26.10
11454;DHT22;5783;55.174;61.310;2022-11-20T11:03:52;16.20;25.80
11454;DHT22;5783;55.174;61.310;2022-11-20T11:07:15;16.20;25.50
11454;DHT22;5783;55.174;61.310;2022-11-20T11:09:16;16.10;25.40
11454;DHT22;5783;55.174;61.310;2022-11-20T11:11:44;16.00;25.70
11454;DHT22;5783;55.174;61.310;2022-11-20T11:14:15;16.00;25.70
11454;DHT22;5783;55.174;61.310;2022-11-20T11:17:17;16.00;25.60
11454;DHT22;5783;55.174;61.310;2022-11-20T11:19:35;16.10;25.50
11454;DHT22;5783;55.174;61.310;2022-11-20T11:22:06;16.10;25.80
11454;DHT22;5783;55.174;61.310;2022-11-20T11:24:37;16.00;26.20
11454;DHT22;5783;55.174;61.310;2022-11-20T11:30:16;15.90;26.10
11454;DHT22;5783;55.174;61.310;2022-11-20T11:32:46;15.80;25.90
11454;DHT22;5783;55.174;61.310;2022-11-20T11:35:39;15.70;26.00
11454;DHT22;5783;55.174;61.310;2022-11-20T11:38:11;15.60;26.00
11454;DHT22;5783;55.174;61.310;2022-11-20T11:40:39;15.30;26.10
11454;DHT22;5783;55.174;61.310;2022-11-20T11:46:38;14.80;26.80
11454;DHT22;5783;55.174;61.310;2022-11-20T11:49:28;14.50;27.20
11454;DHT22;5783;55.174;61.310;2022-11-20T11:52:17;14.30;27.70
11454;DHT22;5783;55.174;61.310;2022-11-20T12:04:16;13.90;27.90
11454;DHT22;5783;55.174;61.310;2022-11-20T12:06:48;13.90;28.30
11454;DHT22;5783;55.174;61.310;2022-11-20T12:09:18;13.80;28.40
11454;DHT22;5783;55.174;61.310;2022-11-20T12:14:58;13.80;28.00
11454;DHT22;5783;55.174;61.310;2022-11-20T12:17:28;13.80;27.80
11454;DHT22;5783;55.174;61.310;2022-11-20T12:19:57;13.80;28.10
11454;DHT22;5783;55.174;61.310;2022-11-20T12:25:36;13.80;27.70
11454;DHT22;5783;55.174;61.310;2022-11-20T12:44:31;13.30;28.30
11454;DHT22;5783;55.174;61.310;2022-11-20T12:53:02;13.20;27.90
11454;DHT22;5783;55.174;61.310;2022-11-20T12:55:49;13.30;28.00
11454;DHT22;5783;55.174;61.310;2022-11-20T13:07:29;13.70;27.40
11454;DHT22;5783;55.174;61.310;2022-11-20T13:09:59;13.60;27.40
11454;DHT22;5783;55.174;61.310;2022-11-20T13:18:37;13.50;27.30
11454;DHT22;5783;55.174;61.310;2022-11-20T13:21:02;13.40;27.50
11454;DHT22;5783;55.174;61.310;2022-11-20T13:23:32;13.40;27.40
11454;DHT22;5783;55.174;61.310;2022-11-20T13:26:22;13.40;27.10
11454;DHT22;5783;55.174;61.310;2022-11-20T13:29:12;13.40;27.20
11454;DHT22;5783;55.174;61.310;2022-11-20T13:31:44;13.40;27.10
11454;DHT22;5783;55.174;61.310;2022-11-20T13:37:04;13.30;27.60
11454;DHT22;5783;55.174;61.310;2022-11-20T13:39:35;13.20;27.20
11454;DHT22;5783;55.174;61.310;2022-11-20T13:42:26;13.20;27.20
11454;DHT22;5783;55.174;61.310;2022-11-20T13:45:00;13.10;27.20
11454;DHT22;5783;55.174;61.310;2022-11-20T13:47:27;13.10;27.20
11454;DHT22;5783;55.174;61.310;2022-11-20T13:49:58;13.10;27.30
11454;DHT22;5783;55.174;61.310;2022-11-20T13:53:23;13.10;27.30
11454;DHT22;5783;55.174;61.310;2022-11-20T14:01:20;12.90;35.90
11454;DHT22;5783;55.174;61.310;2022-11-20T14:03:50;12.90;27.30
11454;DHT22;5783;55.174;61.310;2022-11-20T14:09:31;13.10;27.30
11454;DHT22;5783;55.174;61.310;2022-11-20T14:12:01;13.10;27.20
11454;DHT22;5783;55.174;61.310;2022-11-20T14:14:32;13.20;27.20
11454;DHT22;5783;55.174;61.310;2022-11-20T14:20:14;13.20;27.10
11454;DHT22;5783;55.174;61.310;2022-11-20T14:23:07;13.20;27.00
11454;DHT22;5783;55.174;61.310;2022-11-20T14:25:35;13.30;27.00
11454;DHT22;5783;55.174;61.310;2022-11-20T14:28:05;13.30;26.80
11454;DHT22;5783;55.174;61.310;2022-11-20T14:30:54;13.40;26.90
11454;DHT22;5783;55.174;61.310;2022-11-20T14:33:26;13.30;26.90
11454;DHT22;5783;55.174;61.310;2022-11-20T14:35:57;13.30;26.80
11454;DHT22;5783;55.174;61.310;2022-11-20T14:38:28;13.30;27.00
11454;DHT22;5783;55.174;61.310;2022-11-20T14:41:18;13.40;26.90
11454;DHT22;5783;55.174;61.310;2022-11-20T14:43:51;13.40;26.90
11454;DHT22;5783;55.174;61.310;2022-11-20T14:46:21;13.40;26.60
11454;DHT22;5783;55.174;61.310;2022-11-20T14:48:53;13.30;26.70
11454;DHT22;5783;55.174;61.310;2022-11-20T14:51:42;13.20;26.70
11454;DHT22;5783;55.174;61.310;2022-11-20T14:54:32;13.10;26.90
11454;DHT22;5783;55.174;61.310;2022-11-20T14:57:03;13.10;27.50
11454;DHT22;5783;55.174;61.310;2022-11-20T14:59:34;13.10;29.20
11454;DHT22;5783;55.174;61.310;2022-11-20T15:02:06;13.10;32.30
11454;DHT22;5783;55.174;61.310;2022-11-20T15:07:47;13.00;34.40
11454;DHT22;5783;55.174;61.310;2022-11-20T15:10:36;12.90;34.50
11454;DHT22;5783;55.174;61.310;2022-11-20T15:13:45;12.90;34.50
11454;DHT22;5783;55.174;61.310;2022-11-20T15:16:18;12.90;34.20
11454;DHT22;5783;55.174;61.310;2022-11-20T15:19:40;12.90;34.10
11454;DHT22;5783;55.174;61.310;2022-11-20T15:21:44;12.90;33.90
11454;DHT22;5783;55.174;61.310;2022-11-20T15:27:08;13.00;34.10
11454;DHT22;5783;55.174;61.310;2022-11-20T15:30:00;13.10;34.10
11454;DHT22;5783;55.174;61.310;2022-11-20T15:32:31;13.10;33.50
11454;DHT22;5783;55.174;61.310;2022-11-20T15:35:00;13.10;33.50
11454;DHT22;5783;55.174;61.310;2022-11-20T15:37:30;13.10;33.90
11454;DHT22;5783;55.174;61.310;2022-11-20T15:40:00;13.10;34.10
11454;DHT22;5783;55.174;61.310;2022-11-20T15:42:30;13.00;34.20
11454;DHT22;5783;55.174;61.310;2022-11-20T15:45:00;13.00;34.30
11454;DHT22;5783;55.174;61.310;2022-11-20T15:47:33;12.90;34.40
11454;DHT22;5783;55.174;61.310;2022-11-20T15:50:03;12.90;34.80
11454;DHT22;5783;55.174;61.310;2022-11-20T15:52:32;12.90;34.50
11454;DHT22;5783;55.174;61.310;2022-11-20T15:55:01;12.80;35.10
11454;DHT22;5783;55.174;61.310;2022-11-20T15:57:31;12.90;34.90
11454;DHT22;5783;55.174;61.310;2022-11-20T16:00:00;13.00;35.00
11454;DHT22;5783;55.174;61.310;2022-11-20T16:02:31;13.10;35.00
11454;DHT22;5783;55.174;61.310;2022-11-20T16:05:00;13.10;35.20
11454;DHT22;5783;55.174;61.310;2022-11-20T16:07:31;13.20;34.80
11454;DHT22;5783;55.174;61.310;2022-11-20T16:10:00;13.20;34.20
11454;DHT22;5783;55.174;61.310;2022-11-20T16:12:30;13.20;34.20
11454;DHT22;5783;55.174;61.310;2022-11-20T16:15:19;13.20;34.10
11454;DHT22;5783;55.174;61.310;2022-11-20T16:18:10;13.10;34.40
11454;DHT22;5783;55.174;61.310;2022-11-20T16:20:39;13.00;34.20
11454;DHT22;5783;55.174;61.310;2022-11-20T16:23:08;13.00;34.10
11454;DHT22;5783;55.174;61.310;2022-11-20T16:25:38;12.90;34.30
11454;DHT22;5783;55.174;61.310;2022-11-20T16:28:07;12.80;34.10
11454;DHT22;5783;55.174;61.310;2022-11-20T16:30:37;12.70;34.40
11454;DHT22;5783;55.174;61.310;2022-11-20T16:33:26;12.70;34.40
11454;DHT22;5783;55.174;61.310;2022-11-20T16:35:56;12.70;34.40
11454;DHT22;5783;55.174;61.310;2022-11-20T16:38:25;12.70;34.40
11454;DHT22;5783;55.174;61.310;2022-11-20T16:40:59;12.80;34.40
11454;DHT22;5783;55.174;61.310;2022-11-20T16:43:26;12.90;34.60
11454;DHT22;5783;55.174;61.310;2022-11-20T16:45:55;13.00;34.80
11454;DHT22;5783;55.174;61.310;2022-11-20T16:48:24;13.00;34.20
11454;DHT22;5783;55.174;61.310;2022-11-20T16:50:53;13.10;34.40
11454;DHT22;5783;55.174;61.310;2022-11-20T16:53:22;13.10;34.60
11454;DHT22;5783;55.174;61.310;2022-11-20T16:55:51;13.10;34.40
11454;DHT22;5783;55.174;61.310;2022-11-20T16:58:40;13.20;34.60
11454;DHT22;5783;55.174;61.310;2022-11-20T17:01:11;13.10;34.20
11454;DHT22;5783;55.174;61.310;2022-11-20T17:03:42;13.10;35.00
11454;DHT22;5783;55.174;61.310;2022-11-20T17:06:33;13.00;33.30
11454;DHT22;5783;55.174;61.310;2022-11-20T17:09:03;13.00;34.60
11454;DHT22;5783;55.174;61.310;2022-11-20T17:11:35;13.00;34.80
11454;DHT22;5783;55.174;61.310;2022-11-20T17:14:05;13.00;34.60
11454;DHT22;5783;55.174;61.310;2022-11-20T17:16:36;13.10;34.60
11454;DHT22;5783;55.174;61.310;2022-11-20T17:19:05;13.10;34.40
11454;DHT22;5783;55.174;61.310;2022-11-20T17:21:35;13.10;34.10
11454;DHT22;5783;55.174;61.310;2022-11-20T17:24:08;13.00;34.20
11454;DHT22;5783;55.174;61.310;2022-11-20T17:26:39;13.00;34.20
11454;DHT22;5783;55.174;61.310;2022-11-20T17:29:28;13.00;34.30
11454;DHT22;5783;55.174;61.310;2022-11-20T17:31:57;13.10;34.00
11454;DHT22;5783;55.174;61.310;2022-11-20T17:34:26;13.10;34.00
11454;DHT22;5783;55.174;61.310;2022-11-20T17:36:56;13.10;33.90
11454;DHT22;5783;55.174;61.310;2022-11-20T17:39:25;13.10;34.00
11454;DHT22;5783;55.174;61.310;2022-11-20T17:41:56;13.10;34.20
11454;DHT22;5783;55.174;61.310;2022-11-20T17:44:44;13.10;34.30
11454;DHT22;5783;55.174;61.310;2022-11-20T17:47:14;13.10;34.40
11454;DHT22;5783;55.174;61.310;2022-11-20T17:49:43;13.10;34.40
11454;DHT22;5783;55.174;61.310;2022-11-20T17:52:12;13.10;34.50
11454;DHT22;5783;55.174;61.310;2022-11-20T17:54:41;13.10;34.80
11454;DHT22;5783;55.174;61.310;2022-11-20T17:57:10;13.10;35.00
11454;DHT22;5783;55.174;61.310;2022-11-20T17:59:59;13.10;34.90
11454;DHT22;5783;55.174;61.310;2022-11-20T18:02:28;13.10;35.10
11454;DHT22;5783;55.174;61.310;2022-11-20T18:04:57;13.10;35.10
11454;DHT22;5783;55.174;61.310;2022-11-20T18:07:26;13.10;35.20
11454;DHT22;5783;55.174;61.310;2022-11-20T18:09:55;13.10;35.10
11454;DHT22;5783;55.174;61.310;2022-11-20T18:12:24;13.10;34.70
11454;DHT22;5783;55.174;61.310;2022-11-20T18:14:53;13.20;34.70
11454;DHT22;5783;55.174;61.310;2022-11-20T18:17:23;13.20;34.20
11454;DHT22;5783;55.174;61.310;2022-11-20T18:19:52;13.20;34.00
11454;DHT22;5783;55.174;61.310;2022-11-20T18:22:21;13.20;33.80
11454;DHT22;5783;55.174;61.310;2022-11-20T18:24:50;13.20;33.70
11454;DHT22;5783;55.174;61.310;2022-11-20T18:27:20;13.10;34.10
11454;DHT22;5783;55.174;61.310;2022-11-20T18:29:49;13.10;33.90